sensor_id;sensor_type;location;lat;lon;timestamp;pressure;altitude;pressure_sealevel;temperature;humidity
68525;BME280;55524;51.380;13.372;2023-04-04T00:00:22;101874.59;;;1.23;87.33
68525;BME280;55524;51.380;13.372;2023-04-04T00:02:48;101876.28;;;1.21;87.99
68525;BME280;55524;51.380;13.372;2023-04-04T00:05:15;101864.22;;;1.26;87.57
68525;BME280;55524;51.380;13.372;2023-04-04T00:07:41;101865.19;;;1.30;87.04
68525;BME280;55524;51.380;13.372;2023-04-04T00:10:07;101863.28;;;1.22;87.50
68525;BME280;55524;51.380;13.372;2023-04-04T00:12:34;101863.41;;;1.27;87.64
68525;BME280;55524;51.380;13.372;2023-04-04T00:15:01;101864.91;;;1.17;87.72
68525;BME280;55524;51.380;13.372;2023-04-04T00:17:27;101867.47;;;1.16;88.25
68525;BME280;55524;51.380;13.372;2023-04-04T00:19:54;101866.66;;;1.18;88.53
68525;BME280;55524;51.380;13.372;2023-04-04T00:22:22;101849.34;;;1.20;88.52
68525;BME280;55524;51.380;13.372;2023-04-04T00:24:48;101860.47;;;1.13;89.10
68525;BME280;55524;51.380;13.372;2023-04-04T00:27:15;101859.50;;;1.10;89.27
68525;BME280;55524;51.380;13.372;2023-04-04T00:29:41;101854.34;;;1.11;88.73
68525;BME280;55524;51.380;13.372;2023-04-04T00:32:07;101860.28;;;1.06;89.37
68525;BME280;55524;51.380;13.372;2023-04-04T00:34:33;101858.66;;;1.11;88.95
68525;BME280;55524;51.380;13.372;2023-04-04T00:37:01;101857.75;;;1.09;89.39
68525;BME280;55524;51.380;13.372;2023-04-04T00:39:27;101853.28;;;1.03;89.33
68525;BME280;55524;51.380;13.372;2023-04-04T00:41:54;101855.81;;;1.00;90.07
68525;BME280;55524;51.380;13.372;2023-04-04T00:44:20;101850.69;;;1.03;89.48
68525;BME280;55524;51.380;13.372;2023-04-04T00:46:46;101848.88;;;1.01;89.78
68525;BME280;55524;51.380;13.372;2023-04-04T00:49:12;101845.34;;;0.98;89.62
68525;BME280;55524;51.380;13.372;2023-04-04T00:51:39;101847.94;;;0.98;89.85
68525;BME280;55524;51.380;13.372;2023-04-04T00:54:05;101843.59;;;0.97;90.48
68525;BME280;55524;51.380;13.372;2023-04-04T00:56:32;101840.78;;;0.88;90.58
68525;BME280;55524;51.380;13.372;2023-04-04T00:59:01;101840.09;;;0.95;90.20
68525;BME280;55524;51.380;13.372;2023-04-04T01:01:27;101838.19;;;0.90;90.46
68525;BME280;55524;51.380;13.372;2023-04-04T01:03:56;101837.50;;;0.97;90.23
68525;BME280;55524;51.380;13.372;2023-04-04T01:06:22;101841.63;;;0.87;90.77
68525;BME280;55524;51.380;13.372;2023-04-04T01:08:50;101840.66;;;0.84;91.12
68525;BME280;55524;51.380;13.372;2023-04-04T01:11:17;101840.53;;;0.79;91.36
68525;BME280;55524;51.380;13.372;2023-04-04T01:13:43;101838.06;;;0.84;91.04
68525;BME280;55524;51.380;13.372;2023-04-04T01:16:10;101834.59;;;0.83;90.37
68525;BME280;55524;51.380;13.372;2023-04-04T01:18:37;101831.06;;;0.83;90.94
68525;BME280;55524;51.380;13.372;2023-04-04T01:21:09;101837.03;;;0.79;91.15
68525;BME280;55524;51.380;13.372;2023-04-04T01:23:53;101837.19;;;0.83;90.97
68525;BME280;55524;51.380;13.372;2023-04-04T01:26:23;101832.59;;;0.74;91.35
68525;BME280;55524;51.380;13.372;2023-04-04T01:28:52;101829.97;;;0.71;91.47
68525;BME280;55524;51.380;13.372;2023-04-04T01:31:29;101827.19;;;0.65;91.57
68525;BME280;55524;51.380;13.372;2023-04-04T01:34:09;101824.59;;;0.67;91.06
68525;BME280;55524;51.380;13.372;2023-04-04T01:36:42;101820.31;;;0.67;91.68
68525;BME280;55524;51.380;13.372;2023-04-04T01:39:31;101819.28;;;0.62;91.94
68525;BME280;55524;51.380;13.372;2023-04-04T01:42:02;101819.28;;;0.62;91.81
68525;BME280;55524;51.380;13.372;2023-04-04T01:44:29;101823.34;;;0.51;92.40
68525;BME280;55524;51.380;13.372;2023-04-04T01:46:55;101823.34;;;0.51;92.26
68525;BME280;55524;51.380;13.372;2023-04-04T01:49:21;101816.59;;;0.58;92.28
68525;BME280;55524;51.380;13.372;2023-04-04T01:51:51;101831.88;;;0.45;92.61
68525;BME280;55524;51.380;13.372;2023-04-04T01:54:18;101829.28;;;0.47;92.80
68525;BME280;55524;51.380;13.372;2023-04-04T01:56:44;101826.59;;;0.42;93.33
68525;BME280;55524;51.380;13.372;2023-04-04T01:59:11;101822.22;;;0.41;93.38
68525;BME280;55524;51.380;13.372;2023-04-04T02:01:37;101823.97;;;0.42;93.86
68525;BME280;55524;51.380;13.372;2023-04-04T02:04:04;101818.56;;;0.35;93.97
68525;BME280;55524;51.380;13.372;2023-04-04T02:06:30;101813.34;;;0.33;93.84
68525;BME280;55524;51.380;13.372;2023-04-04T02:08:57;101816.72;;;0.29;93.62
68525;BME280;55524;51.380;13.372;2023-04-04T02:11:23;101809.88;;;0.33;93.57
68525;BME280;55524;51.380;13.372;2023-04-04T02:13:49;101810.63;;;0.29;93.54
68525;BME280;55524;51.380;13.372;2023-04-04T02:16:16;101814.78;;;0.22;94.41
68525;BME280;55524;51.380;13.372;2023-04-04T02:18:43;101807.97;;;0.27;93.99
68525;BME280;55524;51.380;13.372;2023-04-04T02:21:09;101808.59;;;0.18;94.67
68525;BME280;55524;51.380;13.372;2023-04-04T02:23:35;101803.31;;;0.15;95.02
68525;BME280;55524;51.380;13.372;2023-04-04T02:26:03;101800.56;;;0.09;94.87
68525;BME280;55524;51.380;13.372;2023-04-04T02:28:30;101804.94;;;0.10;94.48
68525;BME280;55524;51.380;13.372;2023-04-04T02:30:59;101800.44;;;0.05;94.93
68525;BME280;55524;51.380;13.372;2023-04-04T02:33:29;101794.50;;;0.09;95.32
68525;BME280;55524;51.380;13.372;2023-04-04T02:35:59;101796.03;;;0.02;95.00
68525;BME280;55524;51.380;13.372;2023-04-04T02:38:26;101793.41;;;0.01;95.69
68525;BME280;55524;51.380;13.372;2023-04-04T02:40:52;101799.09;;;-0.13;96.21
68525;BME280;55524;51.380;13.372;2023-04-04T02:43:18;101800.69;;;-0.18;95.99
68525;BME280;55524;51.380;13.372;2023-04-04T02:45:46;101796.25;;;-0.20;96.15
68525;BME280;55524;51.380;13.372;2023-04-04T02:48:12;101796.25;;;-0.22;96.25
68525;BME280;55524;51.380;13.372;2023-04-04T02:50:39;101793.00;;;-0.13;95.88
68525;BME280;55524;51.380;13.372;2023-04-04T02:53:05;101795.25;;;-0.26;96.74
68525;BME280;55524;51.380;13.372;2023-04-04T02:55:32;101791.66;;;-0.31;97.09
68525;BME280;55524;51.380;13.372;2023-04-04T02:57:58;101788.94;;;-0.35;97.48
68525;BME280;55524;51.380;13.372;2023-04-04T03:00:26;101793.16;;;-0.39;97.55
68525;BME280;55524;51.380;13.372;2023-04-04T03:02:56;101790.63;;;-0.36;97.45
68525;BME280;55524;51.380;13.372;2023-04-04T03:05:24;101786.81;;;-0.48;97.70
68525;BME280;55524;51.380;13.372;2023-04-04T03:07:54;101795.66;;;-0.42;98.02
68525;BME280;55524;51.380;13.372;2023-04-04T03:10:25;101790.34;;;-0.46;98.31
68525;BME280;55524;51.380;13.372;2023-04-04T03:12:52;101796.22;;;-0.52;98.13
68525;BME280;55524;51.380;13.372;2023-04-04T03:15:19;101790.94;;;-0.55;98.57
68525;BME280;55524;51.380;13.372;2023-04-04T03:17:45;101786.53;;;-0.58;98.48
68525;BME280;55524;51.380;13.372;2023-04-04T03:20:12;101788.91;;;-0.65;99.05
68525;BME280;55524;51.380;13.372;2023-04-04T03:22:40;101785.59;;;-0.60;99.00
68525;BME280;55524;51.380;13.372;2023-04-04T03:25:07;101789.00;;;-0.62;99.38
68525;BME280;55524;51.380;13.372;2023-04-04T03:27:34;101787.06;;;-0.69;99.37
68525;BME280;55524;51.380;13.372;2023-04-04T03:30:01;101785.09;;;-0.77;99.66
68525;BME280;55524;51.380;13.372;2023-04-04T03:32:27;101779.88;;;-0.78;99.98
68525;BME280;55524;51.380;13.372;2023-04-04T03:34:53;101782.34;;;-0.83;100.00
68525;BME280;55524;51.380;13.372;2023-04-04T03:37:20;101778.69;;;-0.88;100.00
68525;BME280;55524;51.380;13.372;2023-04-04T03:39:47;101779.56;;;-0.87;100.00
68525;BME280;55524;51.380;13.372;2023-04-04T03:42:14;101775.06;;;-0.94;100.00
68525;BME280;55524;51.380;13.372;2023-04-04T03:44:41;101774.00;;;-1.00;100.00
68525;BME280;55524;51.380;13.372;2023-04-04T03:47:08;101779.06;;;-1.04;100.00
68525;BME280;55524;51.380;13.372;2023-04-04T03:49:34;101779.66;;;-1.13;100.00
68525;BME280;55524;51.380;13.372;2023-04-04T03:52:01;101777.81;;;-1.15;100.00
68525;BME280;55524;51.380;13.372;2023-04-04T03:54:28;101775.34;;;-1.12;100.00
68525;BME280;55524;51.380;13.372;2023-04-04T03:56:55;101773.22;;;-1.24;100.00
68525;BME280;55524;51.380;13.372;2023-04-04T03:59:22;101775.19;;;-1.17;100.00
68525;BME280;55524;51.380;13.372;2023-04-04T04:01:49;101774.84;;;-1.28;100.00
68525;BME280;55524;51.380;13.372;2023-04-04T04:04:15;101775.53;;;-1.33;100.00
68525;BME280;55524;51.380;13.372;2023-04-04T04:06:42;101776.13;;;-1.42;100.00
68525;BME280;55524;51.380;13.372;2023-04-04T04:09:09;101786.22;;;-1.50;100.00
68525;BME280;55524;51.380;13.372;2023-04-04T04:11:37;101773.94;;;-1.55;100.00
68525;BME280;55524;51.380;13.372;2023-04-04T04:14:03;101778.06;;;-1.62;100.00
68525;BME280;55524;51.380;13.372;2023-04-04T04:16:30;101778.84;;;-1.63;100.00
68525;BME280;55524;51.380;13.372;2023-04-04T04:18:57;101775.28;;;-1.66;100.00
68525;BME280;55524;51.380;13.372;2023-04-04T04:21:24;101777.78;;;-1.69;100.00
68525;BME280;55524;51.380;13.372;2023-04-04T04:23:53;101780.22;;;-1.74;100.00
68525;BME280;55524;51.380;13.372;2023-04-04T04:26:19;101784.16;;;-1.85;100.00
68525;BME280;55524;51.380;13.372;2023-04-04T04:28:46;101787.63;;;-1.85;100.00
68525;BME280;55524;51.380;13.372;2023-04-04T04:31:15;101789.47;;;-1.81;100.00
68525;BME280;55524;51.380;13.372;2023-04-04T04:33:41;101786.81;;;-1.82;100.00
68525;BME280;55524;51.380;13.372;2023-04-04T04:36:08;101785.88;;;-1.86;100.00
68525;BME280;55524;51.380;13.372;2023-04-04T04:38:34;101790.22;;;-1.85;100.00
68525;BME280;55524;51.380;13.372;2023-04-04T04:41:00;101786.06;;;-1.80;100.00
68525;BME280;55524;51.380;13.372;2023-04-04T04:43:27;101793.00;;;-1.79;100.00
68525;BME280;55524;51.380;13.372;2023-04-04T04:45:53;101792.19;;;-1.78;100.00
68525;BME280;55524;51.380;13.372;2023-04-04T04:48:20;101789.59;;;-1.78;100.00
68525;BME280;55524;51.380;13.372;2023-04-04T04:50:46;101794.81;;;-1.76;100.00
68525;BME280;55524;51.380;13.372;2023-04-04T04:53:13;101793.97;;;-1.75;100.00
68525;BME280;55524;51.380;13.372;2023-04-04T04:55:39;101792.38;;;-1.71;100.00
68525;BME280;55524;51.380;13.372;2023-04-04T04:58:08;101795.13;;;-1.67;100.00
68525;BME280;55524;51.380;13.372;2023-04-04T05:00:36;101793.63;;;-1.60;100.00
68525;BME280;55524;51.380;13.372;2023-04-04T05:03:03;101795.47;;;-1.58;100.00
68525;BME280;55524;51.380;13.372;2023-04-04T05:05:33;101799.91;;;-1.54;100.00
68525;BME280;55524;51.380;13.372;2023-04-04T05:08:01;101801.91;;;-1.46;100.00
68525;BME280;55524;51.380;13.372;2023-04-04T05:10:28;101800.25;;;-1.43;100.00
68525;BME280;55524;51.380;13.372;2023-04-04T05:12:54;101797.78;;;-1.40;100.00
68525;BME280;55524;51.380;13.372;2023-04-04T05:15:20;101802.22;;;-1.36;100.00
68525;BME280;55524;51.380;13.372;2023-04-04T05:17:47;101800.69;;;-1.31;100.00
68525;BME280;55524;51.380;13.372;2023-04-04T05:20:13;101802.44;;;-1.30;100.00
68525;BME280;55524;51.380;13.372;2023-04-04T05:22:43;101807.66;;;-1.28;100.00
68525;BME280;55524;51.380;13.372;2023-04-04T05:25:10;101808.81;;;-1.20;100.00
68525;BME280;55524;51.380;13.372;2023-04-04T05:27:37;101809.69;;;-1.19;100.00
68525;BME280;55524;51.380;13.372;2023-04-04T05:30:04;101822.84;;;-1.13;100.00
68525;BME280;55524;51.380;13.372;2023-04-04T05:32:31;101822.31;;;-1.03;100.00
68525;BME280;55524;51.380;13.372;2023-04-04T05:34:57;101817.47;;;-0.92;99.52
68525;BME280;55524;51.380;13.372;2023-04-04T05:37:23;101820.88;;;-0.95;98.92
68525;BME280;55524;51.380;13.372;2023-04-04T05:39:49;101826.06;;;-0.95;98.98
68525;BME280;55524;51.380;13.372;2023-04-04T05:42:16;101831.47;;;-0.87;98.98
68525;BME280;55524;51.380;13.372;2023-04-04T05:44:42;101827.22;;;-0.85;98.64
68525;BME280;55524;51.380;13.372;2023-04-04T05:47:09;101833.41;;;-0.80;98.68
68525;BME280;55524;51.380;13.372;2023-04-04T05:49:35;101832.66;;;-0.78;98.81
68525;BME280;55524;51.380;13.372;2023-04-04T05:52:02;101833.66;;;-0.72;98.49
68525;BME280;55524;51.380;13.372;2023-04-04T05:54:28;101833.63;;;-0.74;98.70
68525;BME280;55524;51.380;13.372;2023-04-04T05:56:54;101828.69;;;-0.66;97.71
68525;BME280;55524;51.380;13.372;2023-04-04T05:59:21;101833.22;;;-0.59;97.44
68525;BME280;55524;51.380;13.372;2023-04-04T06:01:47;101826.47;;;-0.53;96.57
68525;BME280;55524;51.380;13.372;2023-04-04T06:04:14;101828.09;;;-0.56;94.98
68525;BME280;55524;51.380;13.372;2023-04-04T06:06:40;101828.31;;;-0.50;95.02
68525;BME280;55524;51.380;13.372;2023-04-04T06:09:06;101828.31;;;-0.50;94.58
68525;BME280;55524;51.380;13.372;2023-04-04T06:11:33;101830.13;;;-0.47;95.00
68525;BME280;55524;51.380;13.372;2023-04-04T06:13:59;101837.47;;;-0.33;94.42
68525;BME280;55524;51.380;13.372;2023-04-04T06:16:25;101832.25;;;-0.34;94.55
68525;BME280;55524;51.380;13.372;2023-04-04T06:18:52;101833.22;;;-0.31;94.35
68525;BME280;55524;51.380;13.372;2023-04-04T06:21:18;101840.25;;;-0.27;93.70
68525;BME280;55524;51.380;13.372;2023-04-04T06:23:44;101829.00;;;-0.27;93.15
68525;BME280;55524;51.380;13.372;2023-04-04T06:26:10;101833.72;;;-0.12;92.96
68525;BME280;55524;51.380;13.372;2023-04-04T06:28:45;101840.72;;;-0.11;91.43
68525;BME280;55524;51.380;13.372;2023-04-04T06:31:11;101833.81;;;-0.09;91.40
68525;BME280;55524;51.380;13.372;2023-04-04T06:33:37;101831.41;;;-0.03;92.14
68525;BME280;55524;51.380;13.372;2023-04-04T06:36:03;101829.06;;;0.06;91.29
68525;BME280;55524;51.380;13.372;2023-04-04T06:38:30;101829.16;;;0.09;90.43
68525;BME280;55524;51.380;13.372;2023-04-04T06:40:56;101818.91;;;0.15;89.97
68525;BME280;55524;51.380;13.372;2023-04-04T06:43:23;101827.94;;;0.28;89.85
68525;BME280;55524;51.380;13.372;2023-04-04T06:45:49;101824.53;;;0.31;89.21
68525;BME280;55524;51.380;13.372;2023-04-04T06:48:16;101816.09;;;0.39;88.06
68525;BME280;55524;51.380;13.372;2023-04-04T06:50:42;101814.47;;;0.43;87.47
68525;BME280;55524;51.380;13.372;2023-04-04T06:53:11;101824.09;;;0.47;87.65
68525;BME280;55524;51.380;13.372;2023-04-04T06:55:39;101821.03;;;0.63;87.68
68525;BME280;55524;51.380;13.372;2023-04-04T06:58:05;101800.59;;;0.77;86.44
68525;BME280;55524;51.380;13.372;2023-04-04T07:00:32;101811.22;;;0.86;85.32
68525;BME280;55524;51.380;13.372;2023-04-04T07:02:59;101809.75;;;0.97;85.02
68525;BME280;55524;51.380;13.372;2023-04-04T07:05:26;101802.31;;;1.11;84.24
68525;BME280;55524;51.380;13.372;2023-04-04T07:07:55;101800.88;;;1.26;84.03
68525;BME280;55524;51.380;13.372;2023-04-04T07:10:25;101791.41;;;1.29;83.17
68525;BME280;55524;51.380;13.372;2023-04-04T07:12:52;101791.75;;;1.44;82.14
68525;BME280;55524;51.380;13.372;2023-04-04T07:15:18;101787.50;;;1.48;81.16
68525;BME280;55524;51.380;13.372;2023-04-04T07:17:44;101786.16;;;1.67;81.27
68525;BME280;55524;51.380;13.372;2023-04-04T07:20:11;101783.91;;;1.84;80.52
68525;BME280;55524;51.380;13.372;2023-04-04T07:22:38;101764.19;;;1.98;78.00
68525;BME280;55524;51.380;13.372;2023-04-04T07:25:05;101764.47;;;2.13;77.27
68525;BME280;55524;51.380;13.372;2023-04-04T07:27:32;101744.81;;;2.32;76.34
68525;BME280;55524;51.380;13.372;2023-04-04T07:29:58;101743.91;;;2.83;75.69
68525;BME280;55524;51.380;13.372;2023-04-04T07:32:24;101704.84;;;2.88;71.83
68525;BME280;55524;51.380;13.372;2023-04-04T07:34:51;101698.88;;;3.66;70.71
68525;BME280;55524;51.380;13.372;2023-04-04T07:37:17;101683.69;;;4.15;69.50
68525;BME280;55524;51.380;13.372;2023-04-04T07:39:43;101654.22;;;4.36;66.99
68525;BME280;55524;51.380;13.372;2023-04-04T07:42:10;101631.78;;;4.72;64.03
68525;BME280;55524;51.380;13.372;2023-04-04T07:44:36;101612.59;;;4.78;61.99
68525;BME280;55524;51.380;13.372;2023-04-04T07:47:03;101615.34;;;5.02;61.67
68525;BME280;55524;51.380;13.372;2023-04-04T07:49:29;101612.75;;;5.05;61.52
68525;BME280;55524;51.380;13.372;2023-04-04T07:51:55;101624.22;;;5.41;62.15
68525;BME280;55524;51.380;13.372;2023-04-04T07:54:21;101607.59;;;5.27;60.03
68525;BME280;55524;51.380;13.372;2023-04-04T07:56:50;101614.66;;;5.66;60.45
68525;BME280;55524;51.380;13.372;2023-04-04T07:59:16;101590.19;;;5.68;59.17
68525;BME280;55524;51.380;13.372;2023-04-04T08:01:42;101595.44;;;5.73;58.34
68525;BME280;55524;51.380;13.372;2023-04-04T08:04:09;101585.78;;;5.54;57.75
68525;BME280;55524;51.380;13.372;2023-04-04T08:06:35;101564.84;;;5.66;55.18
68525;BME280;55524;51.380;13.372;2023-04-04T08:09:02;101593.69;;;5.61;57.41
68525;BME280;55524;51.380;13.372;2023-04-04T08:11:30;101589.38;;;5.96;57.21
68525;BME280;55524;51.380;13.372;2023-04-04T08:13:56;101591.13;;;6.16;57.77
68525;BME280;55524;51.380;13.372;2023-04-04T08:16:22;101570.16;;;6.03;55.28
68525;BME280;55524;51.380;13.372;2023-04-04T08:18:48;101561.38;;;5.84;54.16
68525;BME280;55524;51.380;13.372;2023-04-04T08:21:15;101574.50;;;5.90;56.28
68525;BME280;55524;51.380;13.372;2023-04-04T08:23:41;101571.00;;;5.91;55.52
68525;BME280;55524;51.380;13.372;2023-04-04T08:26:07;101573.59;;;5.59;55.82
68525;BME280;55524;51.380;13.372;2023-04-04T08:28:34;101563.13;;;5.66;55.11
68525;BME280;55524;51.380;13.372;2023-04-04T08:31:00;101571.84;;;5.84;55.75
68525;BME280;55524;51.380;13.372;2023-04-04T08:33:26;101571.84;;;6.47;55.71
68525;BME280;55524;51.380;13.372;2023-04-04T08:35:52;101542.84;;;6.79;53.59
68525;BME280;55524;51.380;13.372;2023-04-04T08:38:19;101515.88;;;6.23;51.39
68525;BME280;55524;51.380;13.372;2023-04-04T08:40:48;101521.94;;;6.50;51.15
68525;BME280;55524;51.380;13.372;2023-04-04T08:43:15;101540.38;;;5.79;52.30
68525;BME280;55524;51.380;13.372;2023-04-04T08:45:44;101568.34;;;5.68;55.10
68525;BME280;55524;51.380;13.372;2023-04-04T08:48:14;101559.53;;;5.25;54.89
68525;BME280;55524;51.380;13.372;2023-04-04T08:50:41;101557.78;;;5.28;54.24
68525;BME280;55524;51.380;13.372;2023-04-04T08:53:10;101539.31;;;4.87;52.90
68525;BME280;55524;51.380;13.372;2023-04-04T08:55:37;101516.72;;;5.21;51.02
68525;BME280;55524;51.380;13.372;2023-04-04T08:58:03;101536.84;;;5.36;52.78
68525;BME280;55524;51.380;13.372;2023-04-04T09:00:30;101555.25;;;5.79;52.92
68525;BME280;55524;51.380;13.372;2023-04-04T09:03:13;101549.13;;;5.58;52.34
68525;BME280;55524;51.380;13.372;2023-04-04T09:05:43;101513.25;;;5.82;50.22
68525;BME280;55524;51.380;13.372;2023-04-04T09:08:10;101513.25;;;5.33;49.85
68525;BME280;55524;51.380;13.372;2023-04-04T09:10:38;101529.59;;;4.58;52.02
68525;BME280;55524;51.380;13.372;2023-04-04T09:13:09;101530.47;;;4.56;51.31
68525;BME280;55524;51.380;13.372;2023-04-04T09:15:37;101550.41;;;4.35;53.79
68525;BME280;55524;51.380;13.372;2023-04-04T09:18:06;101567.84;;;4.32;54.18
68525;BME280;55524;51.380;13.372;2023-04-04T09:20:40;101539.88;;;4.20;51.94
68525;BME280;55524;51.380;13.372;2023-04-04T09:23:14;101553.84;;;4.27;53.00
68525;BME280;55524;51.380;13.372;2023-04-04T09:25:46;101530.69;;;5.20;51.74
68525;BME280;55524;51.380;13.372;2023-04-04T09:28:14;101478.31;;;5.84;45.51
68525;BME280;55524;51.380;13.372;2023-04-04T09:30:41;101433.63;;;6.27;42.16
68525;BME280;55524;51.380;13.372;2023-04-04T09:33:10;101440.63;;;6.30;43.00
68525;BME280;55524;51.380;13.372;2023-04-04T09:35:38;101445.03;;;6.15;43.23
68525;BME280;55524;51.380;13.372;2023-04-04T09:38:06;101466.94;;;5.84;44.91
68525;BME280;55524;51.380;13.372;2023-04-04T09:40:36;101457.28;;;6.15;43.87
68525;BME280;55524;51.380;13.372;2023-04-04T09:43:07;101441.25;;;6.79;42.83
68525;BME280;55524;51.380;13.372;2023-04-04T09:45:34;101450.06;;;6.68;44.39
68525;BME280;55524;51.380;13.372;2023-04-04T09:48:01;101449.25;;;6.62;43.82
68525;BME280;55524;51.380;13.372;2023-04-04T09:50:28;101460.63;;;6.61;43.85
68525;BME280;55524;51.380;13.372;2023-04-04T09:52:59;101453.41;;;6.96;43.19
68525;BME280;55524;51.380;13.372;2023-04-04T09:55:37;101429.78;;;6.97;41.70
68525;BME280;55524;51.380;13.372;2023-04-04T09:58:18;101449.03;;;6.96;43.08
68525;BME280;55524;51.380;13.372;2023-04-04T10:00:48;101450.66;;;7.17;43.91
68525;BME280;55524;51.380;13.372;2023-04-04T10:03:17;101437.78;;;6.76;42.83
68525;BME280;55524;51.380;13.372;2023-04-04T10:05:47;101447.88;;;7.37;43.10
68525;BME280;55524;51.380;13.372;2023-04-04T10:08:23;101416.47;;;7.19;40.73
68525;BME280;55524;51.380;13.372;2023-04-04T10:10:57;101431.28;;;7.30;41.18
68525;BME280;55524;51.380;13.372;2023-04-04T10:13:27;101417.38;;;7.18;39.50
68525;BME280;55524;51.380;13.372;2023-04-04T10:15:54;101421.69;;;7.23;40.20
68525;BME280;55524;51.380;13.372;2023-04-04T10:18:26;101425.34;;;7.05;40.75
68525;BME280;55524;51.380;13.372;2023-04-04T10:20:54;101407.75;;;7.12;40.15
68525;BME280;55524;51.380;13.372;2023-04-04T10:23:22;101423.47;;;7.17;40.75
68525;BME280;55524;51.380;13.372;2023-04-04T10:25:50;101388.97;;;7.58;38.61
68525;BME280;55524;51.380;13.372;2023-04-04T10:28:18;101410.09;;;7.47;40.79
68525;BME280;55524;51.380;13.372;2023-04-04T10:33:40;101397.00;;;7.39;39.35
68525;BME280;55524;51.380;13.372;2023-04-04T10:36:11;101398.03;;;7.23;40.10
68525;BME280;55524;51.380;13.372;2023-04-04T10:38:44;101390.69;;;7.62;39.15
68525;BME280;55524;51.380;13.372;2023-04-04T10:41:13;101367.63;;;7.85;37.53
68525;BME280;55524;51.380;13.372;2023-04-04T10:43:42;101382.91;;;7.50;38.35
68525;BME280;55524;51.380;13.372;2023-04-04T10:46:14;101367.72;;;7.78;38.10
68525;BME280;55524;51.380;13.372;2023-04-04T10:48:41;101360.69;;;7.78;38.80
68525;BME280;55524;51.380;13.372;2023-04-04T10:51:10;101377.56;;;7.56;39.50
68525;BME280;55524;51.380;13.372;2023-04-04T10:53:38;101361.00;;;8.25;38.17
68525;BME280;55524;51.380;13.372;2023-04-04T10:56:06;101372.66;;;8.05;38.51
68525;BME280;55524;51.380;13.372;2023-04-04T10:58:39;101355.03;;;8.10;36.95
68525;BME280;55524;51.380;13.372;2023-04-04T11:01:07;101369.22;;;7.99;38.50
68525;BME280;55524;51.380;13.372;2023-04-04T11:12:19;101371.47;;;8.29;40.70
68525;BME280;55524;51.380;13.372;2023-04-04T11:15:06;101332.84;;;8.30;36.20
68525;BME280;55524;51.380;13.372;2023-04-04T11:20:10;101321.88;;;8.64;36.56
68525;BME280;55524;51.380;13.372;2023-04-04T11:22:40;101320.19;;;8.59;35.91
68525;BME280;55524;51.380;13.372;2023-04-04T11:25:35;101330.31;;;8.85;37.13
68525;BME280;55524;51.380;13.372;2023-04-04T11:28:27;101333.56;;;9.01;37.38
68525;BME280;55524;51.380;13.372;2023-04-04T11:31:43;101329.81;;;8.59;37.25
68525;BME280;55524;51.380;13.372;2023-04-04T11:34:14;101323.63;;;8.63;37.44
68525;BME280;55524;51.380;13.372;2023-04-04T11:39:14;101329.16;;;9.02;38.44
68525;BME280;55524;51.380;13.372;2023-04-04T11:41:55;101315.47;;;8.80;36.82
68525;BME280;55524;51.380;13.372;2023-04-04T11:44:26;101328.53;;;8.86;38.69
68525;BME280;55524;51.380;13.372;2023-04-04T11:49:39;101330.88;;;8.49;39.41
68525;BME280;55524;51.380;13.372;2023-04-04T11:52:11;101335.25;;;8.50;39.91
68525;BME280;55524;51.380;13.372;2023-04-04T11:54:39;101326.44;;;9.06;38.82
68525;BME280;55524;51.380;13.372;2023-04-04T11:57:07;101306.47;;;8.93;36.34
68525;BME280;55524;51.380;13.372;2023-04-04T11:59:37;101320.94;;;9.20;38.25
68525;BME280;55524;51.380;13.372;2023-04-04T12:02:04;101305.28;;;9.11;37.88
68525;BME280;55524;51.380;13.372;2023-04-04T12:04:30;101282.03;;;9.33;35.07
68525;BME280;55524;51.380;13.372;2023-04-04T12:06:56;101281.91;;;8.91;36.27
68525;BME280;55524;51.380;13.372;2023-04-04T12:09:25;101273.03;;;7.76;36.08
68525;BME280;55524;51.380;13.372;2023-04-04T12:11:52;101263.78;;;8.70;35.10
68525;BME280;55524;51.380;13.372;2023-04-04T12:14:22;101258.50;;;9.21;34.68
68525;BME280;55524;51.380;13.372;2023-04-04T12:16:54;101262.44;;;8.98;34.63
68525;BME280;55524;51.380;13.372;2023-04-04T12:19:24;101282.06;;;8.80;37.17
68525;BME280;55524;51.380;13.372;2023-04-04T12:21:52;101251.41;;;8.75;34.84
68525;BME280;55524;51.380;13.372;2023-04-04T12:24:19;101254.09;;;8.11;34.74
68525;BME280;55524;51.380;13.372;2023-04-04T12:26:47;101274.28;;;9.22;36.12
68525;BME280;55524;51.380;13.372;2023-04-04T12:29:16;101256.13;;;9.55;34.49
68525;BME280;55524;51.380;13.372;2023-04-04T12:31:45;101247.56;;;8.94;33.92
68525;BME280;55524;51.380;13.372;2023-04-04T12:34:23;101263.38;;;8.96;36.12
68525;BME280;55524;51.380;13.372;2023-04-04T12:36:55;101253.44;;;9.10;35.82
68525;BME280;55524;51.380;13.372;2023-04-04T12:39:25;101252.75;;;9.00;35.41
68525;BME280;55524;51.380;13.372;2023-04-04T12:41:56;101265.50;;;9.23;37.38
68525;BME280;55524;51.380;13.372;2023-04-04T12:44:30;101236.69;;;9.57;34.78
68525;BME280;55524;51.380;13.372;2023-04-04T12:46:59;101257.03;;;9.52;36.27
68525;BME280;55524;51.380;13.372;2023-04-04T12:49:39;101262.88;;;8.72;36.91
68525;BME280;55524;51.380;13.372;2023-04-04T12:52:15;101258.75;;;8.56;36.77
68525;BME280;55524;51.380;13.372;2023-04-04T12:54:42;101255.59;;;8.31;36.15
68525;BME280;55524;51.380;13.372;2023-04-04T12:57:11;101262.13;;;8.02;37.44
68525;BME280;55524;51.380;13.372;2023-04-04T12:59:45;101241.06;;;9.14;36.75
68525;BME280;55524;51.380;13.372;2023-04-04T13:02:20;101246.06;;;9.29;36.09
68525;BME280;55524;51.380;13.372;2023-04-04T13:04:50;101258.97;;;8.96;37.57
68525;BME280;55524;51.380;13.372;2023-04-04T13:10:24;101238.19;;;9.26;36.34
68525;BME280;55524;51.380;13.372;2023-04-04T13:12:59;101235.56;;;9.69;35.66